METAR stanice u blizini

 

LYBE - Beograd / Surčin, Srbija
Ažurirano: 24/04/2018 01:00
Vedro
Vedro
 Pravac vetra J
Vetar: J 6 km/h
Temperatura: 16°C
Tačka rose: 10°C
Vlažnost: 68%
Pritisak: 1014 hPa
Pregled: Vedro
Vidljivost: greater than 10 km
2018/04/23 23:00 LYBE 232300Z 17003KT CAVOK 16/10 Q1014 NOSIG
LYBT - Beograd / Batajnica, Srbija
Ažurirano: 24/04/2018 01:00
Vedro
Vedro
 Pravac vetra calm
Vetar: Tišina
Temperatura: 13°C
Tačka rose: 10°C
Vlažnost: 82%
Pritisak: 1014 hPa
Pregled: Vedro
Vidljivost: greater than 10 km
2018/04/23 23:00 LYBT 232300Z 00000KT CAVOK 13/10 Q1014 NOSIG
LYVR - Vršac, Srbija
Ažurirano: 24/04/2018 01:00
Vedro
Vedro
 Pravac vetra S
Vetar: S 6 km/h
Temperatura: 13°C
Tačka rose: 10°C
Vlažnost: 82%
Pritisak: 1014 hPa
Pregled: Vedro
Vidljivost: greater than 10 km
2018/04/23 23:00 LYVR 232300Z 35003KT CAVOK 13/10 Q1014 NOSIG
 
LYKV - Lađevci, Srbija
Ažurirano: 24/04/2018 01:00
Vedro
Vedro
 Pravac vetra SSI
Vetar: SSI 4 km/h
Temperatura: 11°C
Tačka rose: 8°C
Vlažnost: 82%
Pritisak: 1015 hPa
Pregled: Vedro
Vidljivost: greater than 10 km
2018/04/23 23:00 LYKV 232300Z 02002KT CAVOK 11/08 Q1015 NOSIG
LYNI - Niš, Srbija
Ažurirano: 24/04/2018 00:00
Vedro
Vedro
 Pravac vetra IJI
Vetar: IJI 7 km/h
Temperatura: 15°C
Tačka rose: 7°C
Vlažnost: 59%
Pritisak: 1015 hPa
Pregled: Vedro
Vidljivost: greater than 10 km
2018/04/23 22:00 LYNI 232200Z 11004KT CAVOK 15/07 Q1015 NOSIG
BKPR - Priština, Srbija
Ažurirano: 24/04/2018 01:00
Vedro
Vedro
 Pravac vetra SSI
Vetar: SSI 7 km/h
Temperatura: 11°C
Tačka rose: 4°C
Vlažnost: 62%
Pritisak: 1017 hPa
Pregled: Vedro
Vidljivost: greater than 10 km
2018/04/23 23:00 BKPR 232300Z 03004KT CAVOK 11/04 Q1017 NOSIG
 
LHPP - Pecs / Pogany, Hungary
Ažurirano: 23/04/2018 18:45
NOT Current
Vedro
Vedro
 Pravac vetra ZSZ
Vetar: ZSZ 7 km/h
Temperatura: 24°C
Tačka rose: 10°C
Vlažnost: 41%
Pritisak: 1013 hPa
Pregled: Vedro
Vidljivost: greater than 10 km
2018/04/23 16:45 LHPP 231645Z 29004KT CAVOK 24/10 Q1013
LHUD - Szeged, Hungary
Ažurirano: 24/04/2018 00:45
Vedro
Vedro
 Pravac vetra IJI
Vetar: IJI 13 km/h
Temperatura: 19°C
Tačka rose: 11°C
Vlažnost: 60%
Pritisak: 1014 hPa
Pregled: Vedro
Vidljivost: greater than 10 km
2018/04/23 22:45 LHUD 232245Z 11007KT CAVOK 19/11 Q1014
LRTR - Timisoara, Romania
Ažurirano: 24/04/2018 01:00
Vedro
Vedro
 Pravac vetra IJI
Vetar: IJI 13 km/h
Temperatura: 16°C
Tačka rose: 13°C
Vlažnost: 83%
Pritisak: 1014 hPa
Pregled: Vedro
Vidljivost: greater than 10 km
2018/04/23 23:00 LRTR 232300Z 12007KT CAVOK 16/13 Q1014
 
LRCV - Craiova, Romania
Ažurirano: 24/04/2018 01:00
Vedro
Vedro
 Pravac vetra ZJZ
Vetar: ZJZ 11 km/h
Temperatura: 16°C
Tačka rose: 9°C
Vlažnost: 63%
Pritisak: 1013 hPa
Pregled: Vedro
Vidljivost: greater than 10 km
2018/04/23 23:00 LRCV 232300Z 25006KT CAVOK 16/09 Q1013
LBSF - Sofia, Bulgaria
Ažurirano: 24/04/2018 01:00
Vedro
Vedro
 Pravac vetra varies
Vetar: varies 4 km/h
Temperatura: 12°C
Tačka rose: 8°C
Vlažnost: 77%
Pritisak: 1017 hPa
Pregled: Vedro
Vidljivost: greater than 10 km
2018/04/23 23:00 LBSF 232300Z VRB02KT CAVOK 12/08 Q1017 NOSIG
LWSK - Skoplje, Makedonija
Ažurirano: 24/04/2018 01:00
Vedro
Vedro
 Pravac vetra SI
Vetar: SI 6 km/h
Temperatura: 12°C
Tačka rose: 6°C
Vlažnost: 67%
Pritisak: 1016 hPa
Pregled: Vedro
Vidljivost: greater than 10 km
2018/04/23 23:00 LWSK 232300Z 05003KT CAVOK 12/06 Q1016 NOSIG
 
LYPG - Podgorica, Crna Gora
Ažurirano: 24/04/2018 01:00
Vedro
Vedro
 Pravac vetra varies
Vetar: varies 4 km/h
Temperatura: 15°C
Tačka rose: 13°C
Vlažnost: 88%
Pritisak: 1017 hPa
Pregled: Vedro
Vidljivost: greater than 10 km
2018/04/23 23:00 LYPG 232300Z VRB02KT CAVOK 15/13 Q1017 NOSIG
LQSA - Sarajevo, Bosna i Hercegovina
Ažurirano: 24/04/2018 01:00
Vedro
Vedro
 Pravac vetra calm
Vetar: Tišina
Temperatura: 12°C
Tačka rose: 8°C
Vlažnost: 77%
Pritisak: 1016 hPa
Pregled: Vedro
Vidljivost: greater than 10 km
2018/04/23 23:00 LQSA 232300Z 00000KT CAVOK 12/08 Q1016
LDOS - Osijek, Hrvatksa
Ažurirano: 24/04/2018 01:00
Vedro
Vedro
 Pravac vetra varies
Vetar: varies 4 km/h
Temperatura: 14°C
Tačka rose: 9°C
Vlažnost: 72%
Pritisak: 1014 hPa
Pregled: Vedro
Vidljivost: greater than 10 km
2018/04/23 23:00 LDOS 232300Z VRB02KT CAVOK 14/09 Q1014